Cudjoe Key, Florida
Current Conditions -  °F | °C
As of 12:53 PM on Thursday 29 Jan 2015 (Local Time) from KNQX Reporting Station
Few Clouds Few Clouds  
Wind Chill: 72°   Ceiling: Unl
Heat Index: 72°   Visibility: 10mi
Dew Point: 53°   Wind: 13mph
Humidity: 51%   Direction: 70°ENE
Pressure: 30.21"   Gusts: NA
Location:  24.6465°N, 81.5399°W
Report Text: KNQX 291753Z 07011KT 10SM FEW050 22/12 A3021 RMK AO2 SLP228 T02220117 10222 20156 58014 $
Loading
Personal Weather Stations






























Interactive Weather Map New forecast layout! Learn more

10-Day Weather Forecast

Advertisements
Track Severe Weather on mobile